Time;durP1;ratioP1;P1;durP2;ratioP2;P2;SDS_P1;SDS_P2;PMS_P1;PMS_P2;Temp;Humidity;BMP_temperature;BMP_pressure;BME280_temperature;BME280_humidity;BME280_pressure;Samples;Min_cycle;Max_cycle;Signal;HPM_P1;HPM_P2
2021/12/12 00:01:34;;;;;;;86.28;34.40;;;2.10;99.90;;;;;;5042696;28;20604;-75
2021/12/12 00:04:12;;;;;;;82.53;33.53;;;2.10;99.90;;;;;;5026095;28;20529;-76
2021/12/12 00:06:52;;;;;;;84.03;32.33;;;2.10;99.90;;;;;;5044034;28;20049;-76
2021/12/12 00:09:32;;;;;;;92.55;34.58;;;2.10;99.90;;;;;;5045231;28;20041;-76
2021/12/12 00:12:04;;;;;;;88.63;35.03;;;2.10;99.90;;;;;;5032914;28;20162;-76
2021/12/12 00:14:33;;;;;;;88.07;32.78;;;2.10;99.90;;;;;;5043503;28;20446;-75
2021/12/12 00:17:02;;;;;;;80.43;33.22;;;2.00;99.90;;;;;;5008425;28;20041;-75
2021/12/12 00:19:30;;;;;;;83.50;33.65;;;2.10;99.90;;;;;;5027488;28;20076;-76
2021/12/12 00:22:00;;;;;;;82.32;32.00;;;2.10;99.90;;;;;;5024613;28;20071;-76
2021/12/12 00:24:27;;;;;;;89.70;37.10;;;2.10;99.90;;;;;;5044584;28;20044;-75
2021/12/12 00:26:55;;;;;;;96.43;35.33;;;2.00;99.90;;;;;;5045608;28;20037;-76
2021/12/12 00:29:23;;;;;;;95.05;35.50;;;2.00;99.90;;;;;;5021844;28;20499;-75
2021/12/12 00:31:53;;;;;;;86.53;32.75;;;2.00;99.90;;;;;;5035634;28;20090;-75
2021/12/12 00:34:20;;;;;;;89.65;34.15;;;2.10;99.90;;;;;;5023755;28;20053;-76
2021/12/12 00:36:47;;;;;;;93.07;36.55;;;2.10;99.90;;;;;;5029117;28;20091;-76
2021/12/12 00:39:19;;;;;;;93.90;36.10;;;2.10;99.90;;;;;;5028206;28;20064;-75
2021/12/12 00:41:54;;;;;;;95.10;36.90;;;2.20;99.90;;;;;;5027851;28;20141;-75
2021/12/12 00:44:22;;;;;;;80.22;34.67;;;2.20;99.90;;;;;;5027058;28;20049;-75
2021/12/12 00:46:50;;;;;;;92.65;35.20;;;2.20;99.90;;;;;;5045773;28;20041;-75
2021/12/12 00:49:18;;;;;;;87.70;35.22;;;2.20;99.90;;;;;;5045104;28;20072;-74
2021/12/12 00:51:45;;;;;;;94.28;35.75;;;2.20;99.90;;;;;;5044976;28;20129;-75
2021/12/12 00:54:14;;;;;;;85.03;35.33;;;2.20;99.90;;;;;;5028526;28;20049;-75
2021/12/12 00:56:42;;;;;;;75.65;32.75;;;2.20;99.90;;;;;;5027820;28;20103;-76
2021/12/12 00:59:09;;;;;;;83.78;33.88;;;2.20;99.90;;;;;;5008401;28;20476;-75
2021/12/12 01:01:42;;;;;;;81.90;33.45;;;2.20;99.90;;;;;;5028287;28;20111;-75
2021/12/12 01:04:15;;;;;;;81.10;32.40;;;2.20;99.90;;;;;;5030674;28;20044;-77
2021/12/12 01:06:43;;;;;;;82.97;34.17;;;2.20;99.90;;;;;;5033366;28;20354;-74
2021/12/12 01:09:16;;;;;;;89.47;37.22;;;2.30;99.90;;;;;;5029937;28;20084;-75
2021/12/12 01:11:48;;;;;;;91.38;34.67;;;2.30;99.90;;;;;;5027800;28;20041;-76
2021/12/12 01:14:20;;;;;;;76.28;33.85;;;2.30;99.90;;;;;;5028089;28;20063;-75
2021/12/12 01:17:28;;;;;;;66.90;29.80;;;2.30;99.90;;;;;;5029060;28;20065;-75
2021/12/12 01:20:00;;;;;;;74.30;30.42;;;2.30;99.90;;;;;;5013287;28;20814;-74
2021/12/12 01:22:34;;;;;;;73.43;29.58;;;2.30;99.90;;;;;;5023976;28;20742;-75
2021/12/12 01:25:14;;;;;;;68.85;31.92;;;2.30;99.90;;;;;;5008337;28;20503;-75
2021/12/12 01:27:41;;;;;;;72.53;30.98;;;2.30;99.90;;;;;;5023724;28;20109;-75
2021/12/12 01:30:11;;;;;;;75.63;30.20;;;2.30;99.90;;;;;;5023010;28;20590;-75
2021/12/12 01:32:38;;;;;;;66.45;28.65;;;2.30;99.90;;;;;;5024367;28;20049;-75
2021/12/12 01:35:14;;;;;;;73.85;32.45;;;2.40;99.90;;;;;;5025405;28;20488;-75
2021/12/12 01:37:50;;;;;;;78.45;32.75;;;2.30;99.90;;;;;;5024887;28;20073;-76
2021/12/12 01:40:23;;;;;;;71.00;30.15;;;2.30;99.90;;;;;;5023893;28;20107;-76
2021/12/12 01:42:55;;;;;;;74.05;31.85;;;2.30;99.90;;;;;;5022764;28;20389;-75
2021/12/12 01:45:26;;;;;;;74.22;31.90;;;2.30;99.90;;;;;;5023416;28;20100;-75
2021/12/12 01:47:59;;;;;;;80.47;31.67;;;2.30;99.90;;;;;;5013755;28;20064;-77
2021/12/12 01:50:40;;;;;;;73.22;32.50;;;2.20;99.90;;;;;;5022593;28;20037;-75
2021/12/12 01:53:11;;;;;;;70.10;30.98;;;2.20;99.90;;;;;;5040179;28;20131;-75
2021/12/12 01:55:55;;;;;;;86.57;33.47;;;2.20;99.90;;;;;;5005311;28;20042;-74
2021/12/12 01:58:25;;;;;;;70.80;31.60;;;2.10;99.90;;;;;;5031136;28;20057;-75
2021/12/12 02:01:13;;;;;;;76.07;31.83;;;2.10;99.90;;;;;;5030918;28;20495;-74
2021/12/12 02:03:46;;;;;;;67.68;30.90;;;2.10;99.90;;;;;;5045184;28;20513;-75
2021/12/12 02:06:17;;;;;;;77.43;31.35;;;2.10;99.90;;;;;;5042392;28;20389;-75
2021/12/12 02:08:46;;;;;;;71.65;30.25;;;2.10;99.90;;;;;;5014530;28;20102;-76
2021/12/12 02:11:17;;;;;;;67.78;30.70;;;2.10;99.90;;;;;;5041503;28;20442;-75
2021/12/12 02:13:51;;;;;;;67.20;31.48;;;2.10;99.90;;;;;;5038220;28;20044;-75
2021/12/12 02:16:20;;;;;;;65.05;27.77;;;2.10;99.90;;;;;;5022571;28;20110;-75
2021/12/12 02:18:50;;;;;;;60.95;29.92;;;2.10;99.90;;;;;;5025213;28;20174;-75
2021/12/12 02:21:27;;;;;;;64.15;30.20;;;2.10;99.90;;;;;;5042108;28;20041;-75
2021/12/12 02:35:42;;;;;;;73.00;28.30;;;2.10;99.90;;;;;;5043944;28;20547;-74
2021/12/12 02:37:55;;;;;;;66.13;27.63;;;2.10;99.90;;;;;;5031547;28;20045;-75
2021/12/12 02:40:28;;;;;;;62.00;28.50;;;2.10;99.90;;;;;;5005761;28;20057;-76
2021/12/12 02:42:55;;;;;;;65.97;26.33;;;2.10;99.90;;;;;;5025223;28;20057;-75
2021/12/12 02:45:23;;;;;;;58.65;26.05;;;2.10;99.90;;;;;;5024948;28;20489;-75
2021/12/12 02:47:57;;;;;;;56.78;24.80;;;2.10;99.90;;;;;;5043384;28;20489;-76
2021/12/12 02:50:30;;;;;;;56.45;25.52;;;2.10;99.90;;;;;;5023799;28;20048;-76
2021/12/12 02:53:05;;;;;;;54.30;26.67;;;2.10;99.90;;;;;;5024417;28;20490;-76
2021/12/12 02:55:37;;;;;;;56.45;26.90;;;2.10;99.90;;;;;;5027298;28;20750;-75
2021/12/12 02:58:07;;;;;;;64.13;26.55;;;2.10;99.90;;;;;;5041793;28;20040;-75
2021/12/12 03:00:44;;;;;;;54.83;24.90;;;2.10;99.90;;;;;;5032760;22;20232;-82
2021/12/12 03:03:37;;;;;;;57.22;25.85;;;2.20;99.90;;;;;;5004152;28;20586;-83
2021/12/12 03:06:07;;;;;;;56.33;24.00;;;2.20;99.90;;;;;;5018773;28;20042;-83
2021/12/12 03:08:36;;;;;;;51.50;24.27;;;2.10;99.90;;;;;;5003926;28;20050;-81
2021/12/12 03:11:04;;;;;;;50.53;25.60;;;2.10;99.90;;;;;;5015024;28;20046;-81
2021/12/12 03:13:32;;;;;;;55.67;24.02;;;2.10;99.90;;;;;;5023805;28;20467;-82
2021/12/12 03:15:59;;;;;;;51.85;24.38;;;2.10;99.90;;;;;;5011850;28;20050;-81
2021/12/12 03:18:31;;;;;;;48.28;21.83;;;2.10;99.90;;;;;;5011485;28;20107;-82
2021/12/12 03:21:14;;;;;;;50.08;23.17;;;2.20;99.90;;;;;;5011939;28;20061;-81
2021/12/12 03:23:51;;;;;;;50.83;21.43;;;2.10;99.90;;;;;;5013716;28;20733;-82
2021/12/12 03:26:19;;;;;;;46.92;22.08;;;2.10;99.90;;;;;;5011547;28;20045;-82
2021/12/12 03:28:49;;;;;;;50.15;21.67;;;2.00;99.90;;;;;;5024956;28;20050;-81
2021/12/12 03:31:22;;;;;;;43.42;20.45;;;2.10;99.90;;;;;;5007272;28;20050;-81
2021/12/12 03:33:50;;;;;;;41.88;21.60;;;2.10;99.90;;;;;;5008148;28;20164;-83
2021/12/12 03:36:19;;;;;;;43.20;20.95;;;2.10;99.90;;;;;;5007789;28;20053;-82
2021/12/12 03:38:52;;;;;;;45.08;18.83;;;2.10;99.90;;;;;;5006499;28;20045;-82
2021/12/12 03:41:23;;;;;;;45.33;19.70;;;2.20;99.90;;;;;;5013176;28;20053;-82
2021/12/12 03:43:52;;;;;;;44.30;20.63;;;2.20;99.90;;;;;;5020823;28;20038;-83
2021/12/12 03:46:20;;;;;;;45.75;19.85;;;2.20;99.90;;;;;;5010918;28;20048;-81
2021/12/12 03:48:47;;;;;;;43.00;19.55;;;2.30;99.90;;;;;;5017188;28;20053;-82
2021/12/12 03:51:19;;;;;;;47.95;20.52;;;2.30;99.90;;;;;;5011936;28;20072;-82
2021/12/12 03:53:46;;;;;;;41.05;18.58;;;2.30;99.90;;;;;;5028047;28;20052;-83
2021/12/12 03:56:15;;;;;;;41.97;19.10;;;2.30;99.90;;;;;;5013004;28;20044;-82
2021/12/12 03:58:43;;;;;;;40.65;18.05;;;2.20;99.90;;;;;;5011580;28;20049;-81
2021/12/12 04:01:31;;;;;;;43.95;20.15;;;2.20;99.90;;;;;;5011365;28;20045;-81
2021/12/12 04:04:06;;;;;;;40.10;17.27;;;2.20;99.90;;;;;;5010899;28;20445;-82
2021/12/12 04:06:33;;;;;;;35.25;18.13;;;2.20;99.90;;;;;;5009217;28;20049;-82
2021/12/12 04:09:01;;;;;;;37.65;17.20;;;2.20;99.90;;;;;;5010839;28;20049;-81
2021/12/12 04:11:32;;;;;;;34.55;16.73;;;2.10;99.90;;;;;;5032695;28;20115;-81
2021/12/12 04:13:59;;;;;;;35.50;16.38;;;2.10;99.90;;;;;;5014098;28;20050;-82
2021/12/12 04:16:29;;;;;;;32.13;16.42;;;2.20;99.90;;;;;;5008615;28;20451;-81
2021/12/12 04:18:57;;;;;;;38.55;18.02;;;2.20;99.90;;;;;;4998928;28;20099;-81
2021/12/12 04:21:26;;;;;;;35.35;17.23;;;2.20;99.90;;;;;;5000228;28;20053;-82
2021/12/12 04:23:53;;;;;;;31.48;15.73;;;2.20;99.90;;;;;;5008564;28;20049;-82
2021/12/12 04:26:36;;;;;;;31.85;15.60;;;2.20;99.90;;;;;;5010725;28;20049;-82
2021/12/12 04:29:07;;;;;;;33.30;15.48;;;2.20;99.90;;;;;;5027674;28;20060;-81
2021/12/12 04:31:36;;;;;;;28.55;15.00;;;2.20;99.90;;;;;;5044853;28;20036;-82
2021/12/12 04:34:04;;;;;;;36.00;16.98;;;2.30;99.90;;;;;;5032824;28;20053;-81
2021/12/12 04:36:39;;;;;;;31.55;16.13;;;2.30;99.90;;;;;;5031228;28;20049;-81
2021/12/12 04:39:12;;;;;;;29.50;15.32;;;2.30;99.90;;;;;;5030231;28;20652;-80
2021/12/12 04:41:40;;;;;;;32.53;16.42;;;2.30;99.90;;;;;;5031199;28;20692;-81
2021/12/12 04:44:08;;;;;;;28.48;14.93;;;2.30;99.90;;;;;;5013515;28;20052;-81
2021/12/12 04:49:55;;;;;;;33.45;15.20;;;2.30;99.90;;;;;;5008991;28;20041;-82
2021/12/12 04:52:23;;;;;;;31.38;15.77;;;2.30;99.90;;;;;;5009772;28;20052;-81
2021/12/12 04:55:01;;;;;;;33.28;15.45;;;2.40;99.90;;;;;;5015432;28;20521;-82
2021/12/12 04:57:33;;;;;;;28.65;15.30;;;2.40;99.90;;;;;;5028660;28;20391;-82
2021/12/12 05:00:13;;;;;;;34.10;15.18;;;2.30;99.90;;;;;;5013072;28;20083;-82
2021/12/12 05:02:57;;;;;;;34.05;16.00;;;2.40;99.90;;;;;;5030697;28;20048;-82
2021/12/12 05:05:32;;;;;;;27.60;15.37;;;2.50;99.90;;;;;;5015243;28;20052;-82
2021/12/12 05:08:07;;;;;;;29.75;14.80;;;2.60;99.90;;;;;;4997574;28;20074;-81
2021/12/12 05:10:42;;;;;;;29.55;14.98;;;2.60;99.90;;;;;;5017450;28;20049;-82
2021/12/12 05:13:30;;;;;;;34.50;14.23;;;2.60;99.90;;;;;;5030392;28;20060;-82
2021/12/12 05:16:07;;;;;;;30.30;15.43;;;2.60;99.90;;;;;;5015620;28;20061;-82
2021/12/12 05:18:48;;;;;;;31.02;13.75;;;2.60;99.90;;;;;;4996470;28;20194;-82
2021/12/12 05:21:22;;;;;;;32.03;14.43;;;2.70;99.90;;;;;;5028382;28;20053;-82
2021/12/12 05:23:51;;;;;;;26.57;13.03;;;2.60;99.90;;;;;;5014499;28;20049;-82
2021/12/12 05:26:28;;;;;;;23.98;13.35;;;2.60;99.90;;;;;;5015963;28;20064;-82
2021/12/12 05:29:08;;;;;;;23.33;12.15;;;2.60;99.90;;;;;;5012038;28;20073;-82
2021/12/12 05:31:36;;;;;;;25.83;13.18;;;2.60;99.90;;;;;;5019458;28;20089;-84
2021/12/12 05:34:05;;;;;;;25.98;12.95;;;2.60;99.90;;;;;;4993797;28;20061;-82
2021/12/12 05:36:33;;;;;;;25.73;13.18;;;2.60;99.90;;;;;;5004410;28;20053;-83
2021/12/12 05:39:03;;;;;;;22.13;12.30;;;2.60;99.90;;;;;;5009264;28;20049;-83
2021/12/12 05:41:30;;;;;;;26.30;12.27;;;2.60;99.90;;;;;;5026404;28;20053;-82
2021/12/12 05:43:58;;;;;;;29.45;15.20;;;2.60;99.90;;;;;;5005793;28;20049;-82
2021/12/12 05:46:25;;;;;;;31.27;13.70;;;2.60;99.90;;;;;;5012633;28;20095;-84
2021/12/12 05:48:53;;;;;;;30.13;14.05;;;2.60;99.90;;;;;;5029492;28;20080;-82
2021/12/12 05:51:23;;;;;;;36.47;15.75;;;2.60;99.90;;;;;;5012041;28;20076;-81
2021/12/12 05:53:54;;;;;;;36.95;15.90;;;2.50;99.90;;;;;;5015657;28;20650;-82
2021/12/12 05:56:30;;;;;;;31.52;14.90;;;2.50;99.90;;;;;;5031802;28;20048;-81
2021/12/12 05:58:58;;;;;;;28.58;12.70;;;2.50;99.90;;;;;;5013451;28;20090;-81
2021/12/12 06:01:28;;;;;;;35.00;14.88;;;2.40;99.90;;;;;;5013389;28;20049;-81
2021/12/12 06:03:56;;;;;;;28.00;11.82;;;2.40;99.90;;;;;;5031042;28;20045;-82
2021/12/12 06:06:27;;;;;;;29.10;13.10;;;2.40;99.90;;;;;;5010610;28;20606;-81
2021/12/12 06:08:59;;;;;;;32.03;14.73;;;2.40;99.90;;;;;;5013851;28;20136;-82
2021/12/12 06:11:29;;;;;;;33.40;15.77;;;2.40;99.90;;;;;;5013485;28;20060;-82
2021/12/12 06:13:56;;;;;;;24.13;12.75;;;2.40;99.90;;;;;;5016935;28;20045;-83
2021/12/12 06:16:24;;;;;;;31.15;14.50;;;2.40;99.90;;;;;;4994065;28;20046;-81
2021/12/12 06:19:02;;;;;;;30.40;14.80;;;2.30;99.90;;;;;;5029017;28;20053;-81
2021/12/12 06:21:30;;;;;;;29.27;14.65;;;2.40;99.90;;;;;;5013745;28;20045;-81
2021/12/12 06:23:59;;;;;;;28.60;13.93;;;2.40;99.90;;;;;;5015327;28;20064;-82
2021/12/12 06:26:27;;;;;;;35.03;15.73;;;2.40;99.90;;;;;;4998233;28;20091;-80
2021/12/12 06:28:54;;;;;;;34.85;15.55;;;2.40;99.90;;;;;;4997628;28;20106;-81
2021/12/12 06:31:21;;;;;;;34.22;15.48;;;2.40;99.90;;;;;;5028968;28;20049;-82
2021/12/12 06:33:48;;;;;;;31.42;15.48;;;2.40;99.90;;;;;;5036893;28;20046;-82
2021/12/12 06:36:15;;;;;;;30.80;14.23;;;2.40;99.90;;;;;;5044975;28;20049;-83
2021/12/12 06:38:47;;;;;;;33.75;15.45;;;2.40;99.90;;;;;;5033138;28;20037;-82
2021/12/12 06:41:14;;;;;;;30.45;14.02;;;2.40;99.90;;;;;;5021304;28;20045;-82
2021/12/12 06:43:42;;;;;;;32.15;16.27;;;2.40;99.90;;;;;;5023475;28;20041;-82
2021/12/12 06:46:10;;;;;;;34.75;14.63;;;2.40;99.90;;;;;;5003832;28;20058;-83
2021/12/12 06:48:39;;;;;;;37.30;17.00;;;2.40;99.90;;;;;;4980614;28;20039;-83
2021/12/12 06:51:07;;;;;;;30.20;14.70;;;2.30;99.90;;;;;;4978955;28;20097;-81
2021/12/12 06:53:39;;;;;;;34.13;14.70;;;2.30;99.90;;;;;;4978856;28;20054;-83
2021/12/12 06:56:08;;;;;;;32.78;15.45;;;2.30;99.90;;;;;;4979111;28;20057;-83
2021/12/12 06:58:35;;;;;;;30.27;14.20;;;2.30;99.90;;;;;;4984411;28;20093;-82
2021/12/12 07:01:21;;;;;;;33.20;15.38;;;2.20;99.90;;;;;;5000298;28;20054;-81
2021/12/12 07:03:49;;;;;;;32.13;14.90;;;2.20;99.90;;;;;;5011771;28;20149;-81
2021/12/12 07:06:21;;;;;;;34.53;14.80;;;2.10;99.90;;;;;;5002453;28;20054;-81
2021/12/12 07:08:49;;;;;;;33.50;15.05;;;2.10;99.90;;;;;;4973631;28;20060;-81
2021/12/12 07:11:19;;;;;;;43.55;16.50;;;2.10;99.90;;;;;;4994762;28;20050;-80
2021/12/12 07:13:48;;;;;;;40.35;17.83;;;2.10;99.90;;;;;;5001466;28;20050;-82
2021/12/12 07:16:16;;;;;;;39.75;18.75;;;2.10;99.90;;;;;;4980785;28;20099;-81
2021/12/12 07:18:46;;;;;;;41.38;19.80;;;2.10;99.90;;;;;;5032973;28;20050;-81
2021/12/12 07:21:15;;;;;;;34.55;16.67;;;2.10;99.90;;;;;;5012455;28;20485;-82
2021/12/12 07:23:49;;;;;;;39.42;18.52;;;2.20;99.90;;;;;;5015022;28;20057;-82
2021/12/12 07:32:01;;;;;;;;;;;;;;;;;;;;;
2021/12/12 07:34:40;;;;;;;40.05;15.30;;;2.40;99.90;;;;;;5013800;28;20080;-83
2021/12/12 07:37:43;;;;;;;38.33;14.38;;;2.40;99.90;;;;;;5036951;28;20155;-81
2021/12/12 07:40:46;;;;;;;42.90;16.35;;;2.40;99.90;;;;;;5024761;28;20352;-81
2021/12/12 07:43:16;;;;;;;38.50;16.15;;;2.50;99.90;;;;;;5036928;28;20138;-82
2021/12/12 07:45:49;;;;;;;31.42;14.68;;;2.50;99.90;;;;;;5021268;28;20569;-80
2021/12/12 07:48:16;;;;;;;34.88;13.20;;;2.50;99.90;;;;;;4994318;28;20096;-81
2021/12/12 07:50:45;;;;;;;34.22;14.73;;;2.50;99.90;;;;;;4997068;28;20076;-80
2021/12/12 07:53:12;;;;;;;35.25;13.80;;;2.50;99.90;;;;;;4972370;28;20046;-83
2021/12/12 07:55:40;;;;;;;30.52;13.65;;;2.50;99.90;;;;;;4990844;28;20073;-82
2021/12/12 07:58:13;;;;;;;31.23;14.30;;;2.50;99.90;;;;;;4972114;28;20050;-81
2021/12/12 08:00:42;;;;;;;33.47;13.60;;;2.60;99.90;;;;;;5006250;28;20049;-82
2021/12/12 08:03:10;;;;;;;27.23;12.60;;;2.60;99.90;;;;;;4978340;28;20053;-79
2021/12/12 08:05:38;;;;;;;31.08;13.30;;;2.60;99.90;;;;;;4973441;28;20052;-81
2021/12/12 08:08:08;;;;;;;32.00;12.60;;;2.60;99.90;;;;;;4970309;28;20492;-81
2021/12/12 08:10:37;;;;;;;26.85;11.90;;;2.60;99.90;;;;;;4984809;28;20061;-81
2021/12/12 08:13:06;;;;;;;28.27;12.65;;;2.70;99.90;;;;;;5019060;28;20049;-81
2021/12/12 08:15:41;;;;;;;36.95;14.05;;;2.60;99.90;;;;;;5001491;28;20049;-81
2021/12/12 08:18:10;;;;;;;25.00;13.57;;;2.70;99.90;;;;;;4989638;28;20046;-81
2021/12/12 08:21:05;;;;;;;;;;;;;;;;;;;;;
2021/12/12 08:24:14;;;;;;;29.95;12.90;;;2.70;99.90;;;;;;5008025;28;20038;-83
2021/12/12 08:27:10;;;;;;;23.95;13.40;;;2.80;99.90;;;;;;5005314;28;20296;-81
2021/12/12 08:29:39;;;;;;;28.52;12.70;;;2.80;99.90;;;;;;5016564;28;20383;-81
2021/12/12 08:32:10;;;;;;;37.67;13.38;;;2.80;99.90;;;;;;5016458;28;20064;-82
2021/12/12 08:34:57;;;;;;;18.83;9.38;;;2.80;99.90;;;;;;5032740;28;20066;-81
2021/12/12 08:37:27;;;;;;;27.77;11.43;;;2.80;99.90;;;;;;5016891;28;20053;-80
2021/12/12 08:39:55;;;;;;;24.33;11.07;;;2.80;99.90;;;;;;5012296;28;20065;-82
2021/12/12 08:42:27;;;;;;;19.30;10.77;;;2.80;99.90;;;;;;5032442;28;20535;-82
2021/12/12 08:45:01;;;;;;;21.53;11.17;;;2.80;99.90;;;;;;5013965;28;20121;-82
2021/12/12 08:47:29;;;;;;;22.15;11.75;;;2.80;99.90;;;;;;5027156;28;20152;-80
2021/12/12 08:49:56;;;;;;;28.55;11.10;;;2.80;99.90;;;;;;5012994;28;20436;-81
2021/12/12 08:52:31;;;;;;;22.83;11.77;;;2.80;99.90;;;;;;5012425;28;20115;-81
2021/12/12 08:55:00;;;;;;;16.30;9.10;;;2.70;99.90;;;;;;5012832;28;20049;-81
2021/12/12 08:57:50;;;;;;;20.35;11.35;;;2.70;99.90;;;;;;5015188;28;20049;-82
2021/12/12 09:00:42;;;;;;;27.15;12.07;;;2.70;99.90;;;;;;5029877;28;20049;-81
2021/12/12 09:03:10;;;;;;;24.55;12.55;;;2.60;99.90;;;;;;5011811;28;20052;-81
2021/12/12 09:05:43;;;;;;;22.25;11.13;;;2.60;99.90;;;;;;5037061;28;20383;-81
2021/12/12 09:08:26;;;;;;;22.83;10.30;;;2.60;99.90;;;;;;4995780;28;20620;-82
2021/12/12 09:11:04;;;;;;;35.00;13.63;;;2.60;99.90;;;;;;5033776;28;20049;-82
2021/12/12 09:13:42;;;;;;;26.75;11.95;;;2.70;99.90;;;;;;5015705;28;20794;-82
2021/12/12 09:16:40;;;;;;;29.15;13.90;;;2.70;99.90;;;;;;5019758;28;20042;-81
2021/12/12 09:19:47;;;;;;;25.63;12.95;;;2.70;99.90;;;;;;5007643;28;20109;-81
2021/12/12 09:22:35;;;;;;;32.00;14.93;;;2.70;99.90;;;;;;5038427;28;20040;-82
2021/12/12 09:25:06;;;;;;;34.22;14.98;;;2.70;99.90;;;;;;5016250;28;20098;-81
2021/12/12 09:27:51;;;;;;;29.80;14.73;;;2.70;99.90;;;;;;5047408;28;20048;-82
2021/12/12 09:31:39;;;;;;;38.20;17.00;;;2.80;99.90;;;;;;5034593;28;20109;-81
2021/12/12 09:38:35;;;;;;;30.45;13.15;;;2.70;99.90;;;;;;4969768;28;20445;-82
2021/12/12 09:41:02;;;;;;;31.77;14.35;;;2.70;99.90;;;;;;5011431;28;20060;-81
2021/12/12 09:43:32;;;;;;;35.90;14.98;;;2.70;99.90;;;;;;5032171;28;20056;-80
2021/12/12 09:46:02;;;;;;;30.48;12.93;;;2.70;99.90;;;;;;5014222;28;20102;-81
2021/12/12 09:52:14;;;;;;;34.42;14.82;;;2.80;99.90;;;;;;5009239;28;20061;-81
2021/12/12 09:54:53;;;;;;;34.78;16.15;;;2.90;99.90;;;;;;5018347;28;20050;-79
2021/12/12 09:57:31;;;;;;;32.05;16.75;;;2.80;99.90;;;;;;5004504;28;20046;-81
2021/12/12 10:00:11;;;;;;;38.83;17.13;;;2.80;99.90;;;;;;5001568;28;20322;-80
2021/12/12 10:03:00;;;;;;;35.55;16.10;;;2.90;99.90;;;;;;5023602;28;20513;-79
2021/12/12 10:05:52;;;;;;;36.13;18.55;;;2.90;99.90;;;;;;5033958;28;20090;-79
2021/12/12 10:09:10;;;;;;;33.10;16.42;;;2.90;99.90;;;;;;5033248;28;20075;-79
2021/12/12 10:12:16;;;;;;;36.88;15.80;;;2.90;99.90;;;;;;5028603;28;20052;-81
2021/12/12 10:14:58;;;;;;;33.45;15.77;;;2.80;99.90;;;;;;5026776;28;20609;-79
2021/12/12 10:17:52;;;;;;;40.17;19.13;;;2.90;99.90;;;;;;5044345;28;20064;-79
2021/12/12 10:20:33;;;;;;;41.83;17.27;;;2.90;99.90;;;;;;5032527;28;20045;-79
2021/12/12 10:23:33;;;;;;;41.45;18.15;;;3.10;99.90;;;;;;5037579;28;20044;-79
2021/12/12 10:26:15;;;;;;;37.33;19.00;;;3.10;99.90;;;;;;5000581;28;20033;-79
2021/12/12 10:28:57;;;;;;;45.38;20.95;;;3.10;99.90;;;;;;5011526;28;20045;-80
2021/12/12 10:31:32;;;;;;;50.45;22.75;;;3.20;99.90;;;;;;5014963;28;20049;-78
2021/12/12 10:34:07;;;;;;;53.17;21.02;;;3.20;99.90;;;;;;5015563;28;20075;-80
2021/12/12 10:36:54;;;;;;;50.00;23.70;;;3.20;99.90;;;;;;5026215;28;20049;-78
2021/12/12 10:39:56;;;;;;;65.43;29.00;;;3.20;99.90;;;;;;5015939;28;20566;-79
2021/12/12 10:42:46;;;;;;;62.10;27.65;;;3.30;99.90;;;;;;5007367;28;20072;-79
2021/12/12 10:45:19;;;;;;;61.40;28.17;;;3.40;99.90;;;;;;5014898;28;20061;-79
2021/12/12 10:47:53;;;;;;;71.38;33.08;;;3.50;99.90;;;;;;5033180;28;20048;-79
2021/12/12 10:50:32;;;;;;;54.67;24.80;;;3.60;99.90;;;;;;5026446;28;20076;-80
2021/12/12 10:53:27;;;;;;;64.70;27.25;;;3.50;99.90;;;;;;5011258;28;20052;-80
2021/12/12 10:56:04;;;;;;;56.45;25.58;;;3.60;99.90;;;;;;5004681;28;20135;-78
2021/12/12 10:58:46;;;;;;;56.53;28.48;;;3.60;99.90;;;;;;5015750;28;20069;-79
2021/12/12 11:01:24;;;;;;;58.88;27.52;;;3.70;99.90;;;;;;4995557;28;20650;-80
2021/12/12 11:04:03;;;;;;;45.85;22.33;;;3.70;99.90;;;;;;5015635;28;20148;-79
2021/12/12 11:06:34;;;;;;;44.45;21.88;;;3.80;99.90;;;;;;5025183;28;20075;-80
2021/12/12 11:09:20;;;;;;;38.78;19.35;;;3.80;99.90;;;;;;5033256;28;20045;-79
2021/12/12 11:12:13;;;;;;;50.47;18.90;;;3.80;99.90;;;;;;5031387;28;20691;-79
2021/12/12 11:15:14;;;;;;;44.53;19.75;;;3.90;99.90;;;;;;5029597;28;20045;-79
2021/12/12 11:18:03;;;;;;;38.10;17.17;;;4.00;99.90;;;;;;5028608;28;20497;-79
2021/12/12 11:20:35;;;;;;;35.20;17.73;;;4.10;99.90;;;;;;5007715;28;20045;-79
2021/12/12 11:23:12;;;;;;;43.40;20.35;;;4.10;99.90;;;;;;5022507;28;20138;-79
2021/12/12 11:25:42;;;;;;;44.72;22.33;;;4.10;99.90;;;;;;5022330;28;20057;-79
2021/12/12 11:28:35;;;;;;;58.08;27.95;;;4.20;99.90;;;;;;5010968;28;20595;-79
2021/12/12 11:31:11;;;;;;;56.83;28.95;;;4.30;99.90;;;;;;5028330;28;20116;-78
2021/12/12 11:33:40;;;;;;;49.95;25.10;;;4.30;99.90;;;;;;5030967;28;20088;-81
2021/12/12 11:36:13;;;;;;;47.72;21.90;;;4.40;99.90;;;;;;5006487;28;20049;-80
2021/12/12 11:38:47;;;;;;;43.30;23.48;;;4.50;99.90;;;;;;5010412;28;20104;-82
2021/12/12 11:41:28;;;;;;;33.97;18.75;;;4.50;99.90;;;;;;5029699;28;20308;-78
2021/12/12 11:44:08;;;;;;;38.88;19.70;;;4.50;99.90;;;;;;5018598;28;20038;-80
2021/12/12 11:47:05;;;;;;;46.30;22.83;;;4.50;99.90;;;;;;5009572;28;20127;-79
2021/12/12 11:49:50;;;;;;;41.97;21.90;;;4.60;99.90;;;;;;5009701;28;20470;-79
2021/12/12 11:52:43;;;;;;;44.75;21.45;;;4.60;99.90;;;;;;5034306;28;20152;-78
2021/12/12 11:55:27;;;;;;;35.05;20.15;;;4.60;99.90;;;;;;5027643;28;20072;-79
2021/12/12 11:58:31;;;;;;;37.27;19.97;;;4.60;99.90;;;;;;5003497;28;20056;-79
2021/12/12 12:01:33;;;;;;;34.78;20.38;;;4.70;99.90;;;;;;5009432;28;20722;-79
2021/12/12 12:04:28;;;;;;;32.33;19.92;;;4.70;99.90;;;;;;5018138;28;20119;-79
2021/12/12 12:07:22;;;;;;;34.22;18.25;;;4.70;99.90;;;;;;5009356;28;20088;-79
2021/12/12 12:10:08;;;;;;;32.05;17.15;;;4.70;99.90;;;;;;5020623;28;20075;-80
2021/12/12 12:13:20;;;;;;;50.80;24.67;;;4.80;99.90;;;;;;5043304;28;20030;-79
2021/12/12 12:16:03;;;;;;;71.85;35.38;;;4.90;99.90;;;;;;5009637;28;20115;-78
2021/12/12 12:18:49;;;;;;;64.60;33.50;;;4.90;99.90;;;;;;5027131;28;20510;-80
2021/12/12 12:21:40;;;;;;;41.55;23.58;;;4.90;99.90;;;;;;5009070;28;20049;-79
2021/12/12 12:24:22;;;;;;;31.83;19.95;;;4.90;99.90;;;;;;5012178;28;20108;-80
2021/12/12 12:27:03;;;;;;;30.85;18.10;;;5.00;99.90;;;;;;5031617;28;20111;-79
2021/12/12 12:29:33;;;;;;;30.77;17.10;;;5.00;99.90;;;;;;5010096;28;20042;-78
2021/12/12 12:32:51;;;;;;;31.63;16.95;;;5.00;99.90;;;;;;5031956;28;20128;-78
2021/12/12 12:35:42;;;;;;;37.55;24.10;;;5.00;99.90;;;;;;5028019;28;20530;-80
2021/12/12 12:38:19;;;;;;;35.75;23.42;;;5.10;99.90;;;;;;5019826;28;20057;-79
2021/12/12 12:41:24;;;;;;;47.47;32.83;;;5.20;99.90;;;;;;4995530;28;20049;-81
2021/12/12 12:44:29;;;;;;;30.60;20.90;;;5.20;99.90;;;;;;5036221;28;20049;-79
2021/12/12 12:47:40;;;;;;;30.58;21.42;;;5.20;99.90;;;;;;4960322;28;20100;-80
2021/12/12 12:50:49;;;;;;;33.88;20.13;;;5.30;99.90;;;;;;5006051;28;20065;-78
2021/12/12 12:53:28;;;;;;;20.90;13.38;;;5.30;99.90;;;;;;4993646;28;20136;-79
2021/12/12 12:56:26;;;;;;;19.63;13.90;;;5.30;99.90;;;;;;5011461;28;20262;-79
2021/12/12 12:59:32;;;;;;;17.58;11.77;;;5.40;99.90;;;;;;5026802;28;20053;-79
2021/12/12 13:02:12;;;;;;;17.90;11.55;;;5.40;99.90;;;;;;5039381;28;20098;-79
2021/12/12 13:05:01;;;;;;;17.23;11.13;;;5.50;99.90;;;;;;5007205;28;20048;-79
2021/12/12 13:08:10;;;;;;;19.05;11.32;;;5.60;99.90;;;;;;5032567;28;20166;-80
2021/12/12 13:10:38;;;;;;;28.55;17.80;;;5.70;99.90;;;;;;5016756;28;20076;-82
2021/12/12 13:13:19;;;;;;;40.15;24.05;;;5.80;99.90;;;;;;5012855;28;20049;-79
2021/12/12 13:16:10;;;;;;;27.70;17.77;;;5.90;99.90;;;;;;5026165;28;20286;-79
2021/12/12 13:18:49;;;;;;;27.23;15.60;;;5.90;99.90;;;;;;5010356;28;20046;-79
2021/12/12 13:21:25;;;;;;;25.23;15.80;;;6.00;99.90;;;;;;5009501;28;20120;-79
2021/12/12 13:23:58;;;;;;;20.50;12.43;;;6.00;99.90;;;;;;5007826;28;20594;-80
2021/12/12 13:26:56;;;;;;;21.85;14.65;;;6.10;99.90;;;;;;5008641;28;20054;-79
2021/12/12 13:30:06;;;;;;;18.90;12.18;;;6.10;99.90;;;;;;5011804;28;20077;-80
2021/12/12 13:32:55;;;;;;;19.55;12.27;;;6.10;99.90;;;;;;5037885;28;20041;-79
2021/12/12 13:36:00;;;;;;;13.60;9.27;;;6.20;99.90;;;;;;5029884;28;20079;-80
2021/12/12 13:38:45;;;;;;;12.20;8.60;;;6.20;99.90;;;;;;5012310;28;20061;-79
2021/12/12 13:41:32;;;;;;;16.42;11.18;;;6.20;99.90;;;;;;5044726;28;20076;-80
2021/12/12 13:44:17;;;;;;;13.63;8.38;;;6.30;99.90;;;;;;5029488;28;20042;-80
2021/12/12 13:47:08;;;;;;;16.20;10.55;;;6.30;99.90;;;;;;5026554;28;20072;-80
2021/12/12 13:50:04;;;;;;;18.80;10.95;;;6.40;99.90;;;;;;5027008;28;20049;-80
2021/12/12 13:53:10;;;;;;;22.40;13.13;;;6.40;99.90;;;;;;5026820;28;20057;-80
2021/12/12 13:56:01;;;;;;;26.23;12.98;;;6.40;99.90;;;;;;5008950;28;20042;-79
2021/12/12 13:58:49;;;;;;;14.40;8.20;;;6.50;99.90;;;;;;5008836;28;20111;-81